Time;durP1;ratioP1;P1;durP2;ratioP2;P2;SDS_P1;SDS_P2;PMS_P1;PMS_P2;Temp;Humidity;BMP_temperature;BMP_pressure;BME280_temperature;BME280_humidity;BME280_pressure;Samples;Min_cycle;Max_cycle;Signal;HPM_P1;HPM_P2
2022/08/09 00:00:57;;;;;;;;;;;;;;;19.25;63.22;100093.53;4824237;29;19985;-67
2022/08/09 00:03:27;;;;;;;;;;;;;;;19.29;63.05;100095.16;4814272;29;20440;-67
2022/08/09 00:06:15;;;;;;;;;;;;;;;19.34;62.90;100099.28;4824132;29;19933;-67
2022/08/09 00:08:51;;;;;;;;;;;;;;;19.41;62.72;100097.41;4824237;29;19964;-67
2022/08/09 00:11:24;;;;;;;;;;;;;;;19.31;62.58;100106.31;4824187;29;19986;-67
2022/08/09 00:14:13;;;;;;;;;;;;;;;19.19;63.14;100104.06;4823134;29;19929;-67
2022/08/09 00:17:02;;;;;;;;;;;;;;;19.19;63.31;100102.34;4823087;29;19929;-68
2022/08/09 00:19:33;;;;;;;;;;;;;;;19.22;63.37;100107.41;4824186;29;19951;-67
2022/08/09 00:22:01;;;;;;;;;;;;;;;19.20;63.39;100092.81;4824347;29;19929;-67
2022/08/09 00:24:31;;;;;;;;;;;;;;;19.15;63.61;100099.84;4822905;29;19928;-67
2022/08/09 00:27:00;;;;;;;;;;;;;;;19.07;64.08;100091.47;4824141;29;19955;-67
2022/08/09 00:29:29;;;;;;;;;;;;;;;19.02;64.37;100098.53;4822831;29;20375;-69
2022/08/09 00:32:18;;;;;;;;;;;;;;;18.87;64.55;100098.94;4822513;29;19978;-67
2022/08/09 00:34:56;;;;;;;;;;;;;;;18.77;64.98;100100.06;4824214;29;19933;-67
2022/08/09 00:37:26;;;;;;;;;;;;;;;18.66;65.47;100100.38;4825095;29;19933;-67
2022/08/09 00:39:59;;;;;;;;;;;;;;;18.69;65.56;100105.47;4824035;29;20348;-68
2022/08/09 00:42:44;;;;;;;;;;;;;;;18.65;65.42;100094.38;4824224;29;20028;-66
2022/08/09 00:45:33;;;;;;;;;;;;;;;18.56;65.75;100097.19;4823552;29;19929;-67
2022/08/09 00:48:02;;;;;;;;;;;;;;;18.51;66.04;100096.47;4824102;29;20368;-68
2022/08/09 00:50:32;;;;;;;;;;;;;;;18.42;66.31;100107.03;4812681;29;19933;-67
2022/08/09 00:53:05;;;;;;;;;;;;;;;18.37;66.80;100106.28;4823254;29;19929;-68
2022/08/09 00:55:38;;;;;;;;;;;;;;;18.30;67.01;100102.16;4823402;29;19993;-67
2022/08/09 00:58:26;;;;;;;;;;;;;;;18.24;67.37;100097.13;4818151;29;19933;-67
2022/08/09 01:00:59;;;;;;;;;;;;;;;18.14;67.49;100103.41;4821262;29;20321;-68
2022/08/09 01:03:36;;;;;;;;;;;;;;;18.11;67.65;100106.09;4826592;29;19936;-67
2022/08/09 01:06:19;;;;;;;;;;;;;;;18.18;67.76;100102.47;4825566;29;20287;-67
2022/08/09 01:08:54;;;;;;;;;;;;;;;18.15;67.89;100094.78;4826952;29;19929;-67
2022/08/09 01:11:28;;;;;;;;;;;;;;;18.08;68.22;100106.16;4827340;29;19936;-67
2022/08/09 01:14:03;;;;;;;;;;;;;;;18.04;68.75;100105.38;4827957;29;19951;-67
2022/08/09 01:16:33;;;;;;;;;;;;;;;18.00;68.80;100108.06;4825046;29;19935;-67
2022/08/09 01:19:13;;;;;;;;;;;;;;;18.03;68.91;100115.75;4826559;29;19928;-67
2022/08/09 01:22:19;;;;;;;;;;;;;;;18.04;68.57;100120.03;4825721;29;20020;-68
2022/08/09 01:24:57;;;;;;;;;;;;;;;18.06;68.50;100119.13;4794865;29;19940;-67
2022/08/09 01:27:30;;;;;;;;;;;;;;;18.08;68.35;100119.06;4825464;29;19936;-67
2022/08/09 01:30:00;;;;;;;;;;;;;;;18.09;68.52;100118.19;4826414;29;20379;-67
2022/08/09 01:32:31;;;;;;;;;;;;;;;18.09;68.24;100121.59;4826799;29;19929;-67
2022/08/09 01:35:14;;;;;;;;;;;;;;;18.02;68.52;100121.78;4826888;29;20452;-67
2022/08/09 01:38:05;;;;;;;;;;;;;;;17.95;68.44;100122.81;4824574;29;19952;-68
2022/08/09 01:40:45;;;;;;;;;;;;;;;17.97;68.47;100121.09;4824103;29;19935;-66
2022/08/09 01:43:37;;;;;;;;;;;;;;;18.00;68.46;100123.56;4825265;29;20388;-67
2022/08/09 01:46:20;;;;;;;;;;;;;;;18.01;68.33;100126.13;4825366;29;20418;-68
2022/08/09 01:48:55;;;;;;;;;;;;;;;17.99;68.22;100121.88;4826955;29;19929;-67
2022/08/09 01:51:28;;;;;;;;;;;;;;;17.97;68.41;100123.66;4827189;29;20398;-67
2022/08/09 01:54:01;;;;;;;;;;;;;;;17.96;68.45;100121.94;4826327;29;20363;-67
2022/08/09 01:56:32;;;;;;;;;;;;;;;17.98;68.35;100122.75;4826114;29;20024;-67
2022/08/09 01:59:04;;;;;;;;;;;;;;;17.95;68.28;100120.25;4825292;29;20427;-67
2022/08/09 02:01:34;;;;;;;;;;;;;;;17.83;68.38;100120.53;4826072;29;20019;-67
2022/08/09 02:04:23;;;;;;;;;;;;;;;17.79;68.55;100124.06;4826848;29;19935;-67
2022/08/09 02:09:34;;;;;;;;;;;;;;;17.87;68.35;100117.00;4808152;29;19929;-67
2022/08/09 02:12:11;;;;;;;;;;;;;;;17.80;68.10;100115.44;4808798;29;19933;-67
2022/08/09 02:14:51;;;;;;;;;;;;;;;17.70;68.33;100119.13;4823210;29;19932;-67
2022/08/09 02:17:24;;;;;;;;;;;;;;;17.62;68.37;100118.44;4825679;29;19985;-67
2022/08/09 02:20:13;;;;;;;;;;;;;;;17.50;68.69;100116.94;4823937;29;19928;-67
2022/08/09 02:22:57;;;;;;;;;;;;;;;17.35;68.85;100107.78;4809783;29;19928;-67
2022/08/09 02:25:28;;;;;;;;;;;;;;;17.30;69.43;100116.50;4824698;29;19983;-67
2022/08/09 02:27:59;;;;;;;;;;;;;;;17.22;69.30;100111.53;4826403;29;19936;-67
2022/08/09 02:30:37;;;;;;;;;;;;;;;17.13;69.88;100111.69;4825302;29;20028;-67
2022/08/09 02:33:10;;;;;;;;;;;;;;;17.07;70.07;100111.84;4825269;29;20012;-66
2022/08/09 02:35:42;;;;;;;;;;;;;;;17.09;70.22;100106.63;4824327;29;19929;-67
2022/08/09 02:38:32;;;;;;;;;;;;;;;17.15;70.21;100107.38;4819237;29;19936;-67
2022/08/09 02:41:06;;;;;;;;;;;;;;;17.23;69.94;100108.06;4825262;29;19928;-67
2022/08/09 02:43:35;;;;;;;;;;;;;;;17.28;69.88;100105.38;4805936;29;19929;-67
2022/08/09 02:46:27;;;;;;;;;;;;;;;17.31;70.13;100098.44;4825243;29;19985;-67
2022/08/09 02:48:58;;;;;;;;;;;;;;;17.36;70.52;100106.06;4825396;29;19928;-68
2022/08/09 02:51:28;;;;;;;;;;;;;;;17.39;70.52;100101.72;4822271;29;19929;-67
2022/08/09 02:54:10;;;;;;;;;;;;;;;17.40;70.42;100105.97;4824987;29;19932;-67
2022/08/09 02:56:44;;;;;;;;;;;;;;;17.41;70.48;100097.34;4825034;29;19929;-67
2022/08/09 02:59:19;;;;;;;;;;;;;;;17.40;70.38;100105.13;4825088;29;20028;-67
2022/08/09 03:02:06;;;;;;;;;;;;;;;17.40;70.45;100099.94;4825930;29;20399;-67
2022/08/09 03:04:40;;;;;;;;;;;;;;;17.44;70.22;100110.16;4823757;29;19936;-67
2022/08/09 03:07:10;;;;;;;;;;;;;;;17.47;70.00;100108.44;4825062;29;19936;-67
2022/08/09 03:09:44;;;;;;;;;;;;;;;17.49;69.49;100111.84;4825914;29;19929;-67
2022/08/09 03:12:24;;;;;;;;;;;;;;;17.47;69.81;100113.59;4825751;29;19929;-67
2022/08/09 03:14:53;;;;;;;;;;;;;;;17.48;69.67;100110.13;4824076;29;19951;-67
2022/08/09 03:17:25;;;;;;;;;;;;;;;17.45;69.52;100113.63;4823844;29;19968;-67
2022/08/09 03:19:58;;;;;;;;;;;;;;;17.41;69.40;100112.84;4824764;29;19929;-67
2022/08/09 03:22:35;;;;;;;;;;;;;;;17.40;69.33;100115.44;4820056;29;19979;-67
2022/08/09 03:25:11;;;;;;;;;;;;;;;17.36;69.29;100109.50;4825754;29;19971;-67
2022/08/09 03:28:01;;;;;;;;;;;;;;;17.34;69.32;100111.28;4825086;29;19958;-68
2022/08/09 03:30:30;;;;;;;;;;;;;;;17.35;69.46;100112.97;4824590;29;19936;-67
2022/08/09 03:33:05;;;;;;;;;;;;;;;17.25;69.31;100113.19;4824966;29;19928;-68
2022/08/09 03:35:46;;;;;;;;;;;;;;;17.21;69.72;100114.13;4824004;29;19994;-67
2022/08/09 03:38:34;;;;;;;;;;;;;;;17.15;69.73;100109.97;4825556;29;20403;-67
2022/08/09 03:41:09;;;;;;;;;;;;;;;17.17;69.97;100105.63;4809285;29;19955;-67
2022/08/09 03:43:43;;;;;;;;;;;;;;;17.16;69.98;100106.50;4825756;29;20031;-66
2022/08/09 03:46:31;;;;;;;;;;;;;;;17.08;70.12;100108.41;4823822;29;19929;-67
2022/08/09 03:49:03;;;;;;;;;;;;;;;17.01;70.33;100103.38;4820192;29;19968;-67
2022/08/09 03:51:39;;;;;;;;;;;;;;;16.96;70.67;100111.22;4817655;29;19937;-68
2022/08/09 03:54:29;;;;;;;;;;;;;;;16.88;70.72;100105.34;4823507;29;19928;-67
2022/08/09 03:57:00;;;;;;;;;;;;;;;16.93;70.71;100102.69;4824852;29;19929;-67
2022/08/09 03:59:29;;;;;;;;;;;;;;;16.98;70.94;100100.84;4826016;29;19960;-67
2022/08/09 04:02:18;;;;;;;;;;;;;;;17.02;70.98;100095.59;4817175;29;19929;-68
2022/08/09 04:04:55;;;;;;;;;;;;;;;17.05;70.85;100092.97;4824083;29;19935;-67
2022/08/09 04:07:26;;;;;;;;;;;;;;;17.04;70.88;100101.56;4821074;29;19936;-71
2022/08/09 04:10:14;;;;;;;;;;;;;;;17.05;70.94;100108.44;4818636;29;19960;-68
2022/08/09 04:12:48;;;;;;;;;;;;;;;17.07;70.85;100106.69;4823861;29;19985;-68
2022/08/09 04:15:19;;;;;;;;;;;;;;;17.11;70.97;100108.31;4823649;29;19929;-68
2022/08/09 04:18:09;;;;;;;;;;;;;;;17.19;70.37;100106.44;4822380;29;19929;-66
2022/08/09 04:20:47;;;;;;;;;;;;;;;17.24;70.28;100101.19;4824446;29;19971;-68
2022/08/09 04:23:15;;;;;;;;;;;;;;;17.35;69.94;100097.47;4821039;29;19951;-72
2022/08/09 04:25:50;;;;;;;;;;;;;;;17.41;70.11;100102.53;4822539;29;19989;-67
2022/08/09 04:28:21;;;;;;;;;;;;;;;17.47;69.97;100105.84;4823392;29;19972;-71
2022/08/09 04:31:01;;;;;;;;;;;;;;;17.52;69.39;100114.34;4812685;29;20399;-67
2022/08/09 04:33:38;;;;;;;;;;;;;;;17.61;69.31;100104.66;4825819;29;19929;-67
2022/08/09 04:36:23;;;;;;;;;;;;;;;17.70;69.48;100109.66;4828442;29;19940;-67
2022/08/09 04:38:52;;;;;;;;;;;;;;;17.79;69.37;100112.00;4827602;29;19936;-70
2022/08/09 04:44:38;;;;;;;;;;;;;;;17.96;68.83;100107.31;4808392;29;20035;-73
2022/08/09 04:48:28;;;;;;;;;;;;;;;18.08;69.11;100111.31;4826758;29;20375;-71
2022/08/09 04:51:23;;;;;;;;;;;;;;;18.24;68.60;100102.31;4773082;30;20356;-68
2022/08/09 04:54:51;;;;;;;;;;;;;;;18.42;68.17;100101.84;4754589;29;20033;-67
2022/08/09 05:02:21;;;;;;;;;;;;;;;18.74;66.91;100104.44;4802583;29;19962;-68
2022/08/09 05:12:45;;;;;;;;;;;;;;;19.03;66.08;100115.72;4805318;29;20433;-71
2022/08/09 05:16:19;;;;;;;;;;;;;;;19.17;66.14;100113.63;4805388;29;19936;-70
2022/08/09 05:22:41;;;;;;;;;;;;;;;19.32;65.90;100124.38;4793708;29;19929;-67
2022/08/09 05:26:44;;;;;;;;;;;;;;;19.37;65.49;100132.03;4806394;29;19929;-68
2022/08/09 05:29:22;;;;;;;;;;;;;;;19.48;65.03;100130.00;4807459;29;19929;-69
2022/08/09 05:33:11;;;;;;;;;;;;;;;19.59;64.57;100122.72;4809972;29;19929;-73
2022/08/09 05:36:34;;;;;;;;;;;;;;;19.68;64.22;100116.41;4826428;29;19979;-67
2022/08/09 05:39:03;;;;;;;;;;;;;;;19.76;64.22;100117.88;4824712;29;19937;-68
2022/08/09 05:41:32;;;;;;;;;;;;;;;19.90;64.02;100123.47;4825045;29;19960;-67
2022/08/09 05:44:03;;;;;;;;;;;;;;;20.04;63.92;100117.84;4827607;29;19939;-73
2022/08/09 05:46:32;;;;;;;;;;;;;;;20.15;63.59;100117.50;4824555;29;19928;-73
2022/08/09 05:49:00;;;;;;;;;;;;;;;20.32;63.54;100115.25;4822529;29;20186;-70
2022/08/09 05:51:34;;;;;;;;;;;;;;;20.41;62.42;100118.38;4825319;29;19935;-68
2022/08/09 05:54:14;;;;;;;;;;;;;;;20.50;61.98;100112.03;4827441;29;19936;-69
2022/08/09 05:56:45;;;;;;;;;;;;;;;20.58;61.52;100118.66;4826821;29;19928;-72
2022/08/09 05:59:24;;;;;;;;;;;;;;;20.74;61.20;100118.97;4826912;29;19954;-70
2022/08/09 06:01:52;;;;;;;;;;;;;;;20.80;60.92;100118.75;4827299;29;19937;-68
2022/08/09 06:04:26;;;;;;;;;;;;;;;20.87;60.68;100120.22;4826167;29;19929;-70
2022/08/09 06:07:02;;;;;;;;;;;;;;;21.00;60.75;100116.28;4827097;29;19972;-69
2022/08/09 06:09:30;;;;;;;;;;;;;;;21.11;60.38;100123.72;4826932;29;19933;-70
2022/08/09 06:12:19;;;;;;;;;;;;;;;21.25;60.12;100129.25;4827479;29;19929;-67
2022/08/09 06:14:55;;;;;;;;;;;;;;;21.32;59.89;100128.97;4827019;29;19929;-69
2022/08/09 06:17:28;;;;;;;;;;;;;;;21.39;59.73;100134.78;4826851;29;19929;-71
2022/08/09 06:20:09;;;;;;;;;;;;;;;21.44;59.45;100126.81;4826907;29;20345;-71
2022/08/09 06:22:38;;;;;;;;;;;;;;;21.51;59.27;100136.06;4826569;29;20392;-72
2022/08/09 06:25:07;;;;;;;;;;;;;;;21.65;58.97;100132.03;4826947;29;19929;-70
2022/08/09 06:27:35;;;;;;;;;;;;;;;21.77;58.89;100126.34;4826735;29;19928;-72
2022/08/09 06:30:20;;;;;;;;;;;;;;;21.92;58.73;100127.53;4826605;29;19929;-71
2022/08/09 06:32:50;;;;;;;;;;;;;;;22.01;58.25;100129.75;4827167;29;20321;-68
2022/08/09 06:35:39;;;;;;;;;;;;;;;22.12;57.99;100134.53;4826782;29;19929;-71
2022/08/09 06:38:25;;;;;;;;;;;;;;;22.23;57.43;100127.13;4826467;29;19929;-71
2022/08/09 06:41:05;;;;;;;;;;;;;;;22.28;56.98;100126.06;4826354;29;20388;-70
2022/08/09 06:43:46;;;;;;;;;;;;;;;22.36;56.77;100125.75;4826871;29;19980;-69
2022/08/09 06:46:16;;;;;;;;;;;;;;;22.48;56.73;100123.44;4826208;29;19935;-68
2022/08/09 06:49:05;;;;;;;;;;;;;;;22.62;56.33;100125.50;4826198;29;19986;-71
2022/08/09 06:51:34;;;;;;;;;;;;;;;22.71;56.04;100121.66;4824887;29;20350;-71
2022/08/09 06:54:08;;;;;;;;;;;;;;;22.81;55.67;100125.56;4826693;29;19929;-70
2022/08/09 06:56:42;;;;;;;;;;;;;;;22.92;55.58;100129.38;4825783;29;20329;-70
2022/08/09 06:59:13;;;;;;;;;;;;;;;23.05;55.27;100124.47;4826010;29;19929;-71
2022/08/09 07:02:03;;;;;;;;;;;;;;;23.15;54.89;100128.38;4825803;29;19981;-73
2022/08/09 07:04:32;;;;;;;;;;;;;;;23.21;54.55;100130.69;4826390;29;19933;-70
2022/08/09 07:07:02;;;;;;;;;;;;;;;23.33;54.07;100137.94;4825861;29;19932;-70
2022/08/09 07:09:32;;;;;;;;;;;;;;;23.42;53.84;100140.16;4826272;29;19933;-68
2022/08/09 07:12:21;;;;;;;;;;;;;;;23.51;53.66;100146.72;4826235;29;19929;-71
2022/08/09 07:15:07;;;;;;;;;;;;;;;23.56;53.40;100135.19;4825808;29;19929;-69
2022/08/09 07:17:57;;;;;;;;;;;;;;;23.62;52.96;100139.25;4825909;29;19933;-73
2022/08/09 07:20:30;;;;;;;;;;;;;;;23.71;53.19;100144.00;4825808;29;20411;-70
2022/08/09 07:22:58;;;;;;;;;;;;;;;23.76;52.95;100137.69;4825700;29;19935;-68
2022/08/09 07:25:27;;;;;;;;;;;;;;;23.78;52.76;100140.19;4826009;29;20027;-69
2022/08/09 07:27:56;;;;;;;;;;;;;;;23.85;52.94;100145.06;4825546;29;19971;-70
2022/08/09 07:30:24;;;;;;;;;;;;;;;23.87;52.60;100140.59;4825912;29;19928;-69
2022/08/09 07:33:01;;;;;;;;;;;;;;;23.97;52.35;100136.66;4825984;29;19935;-71
2022/08/09 07:35:39;;;;;;;;;;;;;;;24.09;52.20;100134.41;4825848;29;19951;-70
2022/08/09 07:38:22;;;;;;;;;;;;;;;24.20;51.92;100137.34;4825862;29;19929;-70
2022/08/09 07:40:58;;;;;;;;;;;;;;;24.28;51.89;100143.03;4825531;29;19936;-71
2022/08/09 07:43:40;;;;;;;;;;;;;;;24.26;51.92;100137.88;4825499;29;19936;-71
2022/08/09 07:46:23;;;;;;;;;;;;;;;24.26;51.96;100142.28;4825389;29;20019;-70
2022/08/09 07:48:56;;;;;;;;;;;;;;;24.27;51.90;100143.94;4808911;29;19991;-69
2022/08/09 07:51:27;;;;;;;;;;;;;;;24.35;52.06;100145.25;4825479;29;19968;-70
2022/08/09 07:54:16;;;;;;;;;;;;;;;24.47;51.89;100142.03;4825710;29;19929;-71
2022/08/09 07:56:55;;;;;;;;;;;;;;;24.54;51.85;100142.56;4825350;29;19935;-70
2022/08/09 07:59:25;;;;;;;;;;;;;;;24.63;51.49;100142.09;4825519;29;20394;-70
2022/08/09 08:02:13;;;;;;;;;;;;;;;24.79;51.30;100143.03;4824844;29;20017;-72
2022/08/09 08:04:48;;;;;;;;;;;;;;;24.98;51.17;100146.38;4825500;29;19953;-70
2022/08/09 08:07:21;;;;;;;;;;;;;;;25.20;50.49;100148.69;4825083;29;19999;-70
2022/08/09 08:10:10;;;;;;;;;;;;;;;25.19;49.67;100153.06;4825843;29;20294;-71
2022/08/09 08:12:39;;;;;;;;;;;;;;;25.18;49.56;100143.56;4825221;29;20031;-72
2022/08/09 08:15:11;;;;;;;;;;;;;;;25.17;49.25;100149.72;4825445;29;19935;-70
2022/08/09 08:17:41;;;;;;;;;;;;;;;25.25;48.98;100147.53;4825069;29;19936;-71
2022/08/09 08:20:25;;;;;;;;;;;;;;;25.41;49.04;100147.53;4825326;29;19933;-72
2022/08/09 08:23:01;;;;;;;;;;;;;;;25.57;48.90;100143.22;4825661;29;20375;-70
2022/08/09 08:25:34;;;;;;;;;;;;;;;25.63;48.40;100148.09;4823810;29;20020;-72
2022/08/09 08:28:12;;;;;;;;;;;;;;;25.70;48.41;100143.38;4824961;29;19979;-71
2022/08/09 08:30:42;;;;;;;;;;;;;;;25.90;48.19;100143.13;4824943;29;19929;-70
2022/08/09 08:33:11;;;;;;;;;;;;;;;26.03;48.42;100151.13;4825263;29;19929;-71
2022/08/09 08:35:54;;;;;;;;;;;;;;;26.23;48.08;100143.00;4824884;29;19971;-70
2022/08/09 08:38:28;;;;;;;;;;;;;;;26.21;47.27;100145.72;4823688;29;19928;-70
2022/08/09 08:40:57;;;;;;;;;;;;;;;26.13;47.48;100141.84;4824787;29;19976;-71
2022/08/09 08:43:26;;;;;;;;;;;;;;;26.17;47.49;100148.59;4825111;29;19977;-70
2022/08/09 08:45:56;;;;;;;;;;;;;;;26.21;47.35;100147.47;4808772;29;19933;-70
2022/08/09 08:48:45;;;;;;;;;;;;;;;26.25;47.60;100138.53;4824701;29;19937;-72
2022/08/09 08:51:21;;;;;;;;;;;;;;;26.31;47.29;100139.03;4824684;29;20376;-71
2022/08/09 08:53:51;;;;;;;;;;;;;;;26.25;47.20;100141.16;4824682;29;19929;-71
2022/08/09 08:56:33;;;;;;;;;;;;;;;26.12;47.08;100135.78;4825070;29;19929;-72
2022/08/09 08:59:03;;;;;;;;;;;;;;;26.14;47.76;100138.28;4822491;29;19929;-69
2022/08/09 09:01:48;;;;;;;;;;;;;;;26.12;47.44;100130.53;4816192;29;20376;-70
2022/08/09 09:04:28;;;;;;;;;;;;;;;26.15;47.63;100130.38;4818376;29;20020;-69
2022/08/09 09:07:08;;;;;;;;;;;;;;;26.25;47.54;100133.31;4817999;29;20019;-71
2022/08/09 09:09:38;;;;;;;;;;;;;;;26.43;47.55;100134.84;4814330;29;20347;-73
2022/08/09 09:12:45;;;;;;;;;;;;;;;26.50;47.40;100134.41;4818835;29;20016;-73
2022/08/09 09:15:22;;;;;;;;;;;;;;;26.59;46.79;100130.38;4816500;29;19932;-73
2022/08/09 09:18:22;;;;;;;;;;;;;;;26.59;46.84;100126.00;4820567;29;19936;-73
2022/08/09 09:21:51;;;;;;;;;;;;;;;26.61;47.07;100123.25;4817993;29;20520;-69
2022/08/09 09:25:27;;;;;;;;;;;;;;;26.74;46.85;100124.22;4786257;30;19930;-73
2022/08/09 09:28:51;;;;;;;;;;;;;;;26.85;46.49;100126.25;4787845;30;20070;-72
2022/08/09 09:44:07;;;;;;;;;;;;;;;;;;;;;
2022/08/09 09:52:25;;;;;;;;;;;;;;;;;;;;;
2022/08/09 09:55:22;;;;;;;;;;;;;;;27.66;45.84;100121.16;4769361;30;19969;-72
2022/08/09 09:58:09;;;;;;;;;;;;;;;27.56;45.00;100127.91;4771803;30;19974;-72
2022/08/09 10:00:54;;;;;;;;;;;;;;;27.65;45.46;100124.69;4786828;30;20342;-70
2022/08/09 10:03:57;;;;;;;;;;;;;;;27.73;45.29;100137.31;4787170;30;19936;-70
2022/08/09 10:11:13;;;;;;;;;;;;;;;27.89;44.90;100123.13;4740587;30;20017;-69
2022/08/09 10:30:35;;;;;;;;;;;;;;;28.16;43.81;100109.16;4674061;30;19931;-70
2022/08/09 10:43:17;;;;;;;;;;;;;;;;;;;;;
2022/08/09 10:46:34;;;;;;;;;;;;;;;29.05;43.73;100096.00;4773547;30;19930;-71
2022/08/09 10:49:48;;;;;;;;;;;;;;;29.43;43.44;100095.09;4763686;30;20385;-72
2022/08/09 10:52:33;;;;;;;;;;;;;;;29.21;42.13;100095.78;4768455;30;19969;-71
2022/08/09 10:55:19;;;;;;;;;;;;;;;28.81;42.08;100087.19;4774642;29;19965;-71
2022/08/09 10:57:49;;;;;;;;;;;;;;;28.63;42.31;100088.44;4785395;29;20105;-71
2022/08/09 11:00:30;;;;;;;;;;;;;;;28.82;42.66;100088.84;4787142;29;20370;-73
2022/08/09 11:02:59;;;;;;;;;;;;;;;29.08;41.94;100074.72;4807929;29;20027;-70
2022/08/09 11:06:00;;;;;;;;;;;;;;;29.44;41.76;100081.00;4823724;29;19932;-71
2022/08/09 11:08:41;;;;;;;;;;;;;;;29.36;41.58;100073.66;4811999;29;19976;-70
2022/08/09 11:11:15;;;;;;;;;;;;;;;29.09;40.70;100076.41;4820087;29;19937;-70
2022/08/09 11:13:43;;;;;;;;;;;;;;;28.88;40.76;100077.94;4822941;29;19985;-71
2022/08/09 11:16:32;;;;;;;;;;;;;;;28.84;40.85;100076.44;4825552;29;19929;-71
2022/08/09 11:19:04;;;;;;;;;;;;;;;28.95;40.64;100068.66;4825096;29;19936;-69
2022/08/09 11:22:03;;;;;;;;;;;;;;;;;;;;;
2022/08/09 11:25:46;;;;;;;;;;;;;;;29.43;40.09;100064.34;4822095;29;19933;-70
2022/08/09 11:35:22;;;;;;;;;;;;;;;29.90;38.38;100055.63;4823793;29;19936;-72
2022/08/09 11:39:05;;;;;;;;;;;;;;;29.82;37.94;100055.38;4810535;29;19977;-72
2022/08/09 11:50:05;;;;;;;;;;;;;;;;;;;;;
2022/08/09 11:53:25;;;;;;;;;;;;;;;28.82;38.93;100041.53;4815940;29;19935;-71
2022/08/09 12:07:11;;;;;;;;;;;;;;;29.36;37.92;100033.34;4730667;30;19929;-70
2022/08/09 12:09:44;;;;;;;;;;;;;;;29.17;38.02;100034.66;4804062;29;19964;-71
2022/08/09 12:12:18;;;;;;;;;;;;;;;29.05;37.86;100035.53;4803260;29;19930;-71
2022/08/09 12:14:57;;;;;;;;;;;;;;;29.19;38.25;100030.16;4802288;29;19936;-70
2022/08/09 12:17:36;;;;;;;;;;;;;;;29.50;38.32;100027.91;4802655;29;20024;-71
2022/08/09 12:20:13;;;;;;;;;;;;;;;29.63;37.24;100034.81;4803967;29;20408;-70
2022/08/09 12:22:52;;;;;;;;;;;;;;;29.72;37.54;100033.28;4805616;29;19933;-71
2022/08/09 12:25:24;;;;;;;;;;;;;;;29.47;37.19;100033.38;4801641;29;19929;-69
2022/08/09 12:28:08;;;;;;;;;;;;;;;29.35;37.25;100029.00;4790598;29;20491;-71
2022/08/09 12:30:57;;;;;;;;;;;;;;;29.11;37.66;100028.97;4804974;29;19939;-74
2022/08/09 12:33:25;;;;;;;;;;;;;;;28.98;38.17;100031.66;4805213;29;19986;-70
2022/08/09 12:36:14;;;;;;;;;;;;;;;29.09;38.02;100034.34;4804051;29;19929;-71
2022/08/09 12:39:01;;;;;;;;;;;;;;;29.27;37.63;100036.63;4790793;29;20372;-71
2022/08/09 12:41:32;;;;;;;;;;;;;;;29.44;37.25;100031.81;4803722;29;19929;-71
2022/08/09 12:44:07;;;;;;;;;;;;;;;29.53;36.85;100025.06;4808456;29;19978;-70
2022/08/09 12:46:40;;;;;;;;;;;;;;;29.61;36.61;100030.63;4799123;29;19978;-69
2022/08/09 12:49:11;;;;;;;;;;;;;;;29.73;36.54;100027.06;4805186;29;19930;-72
2022/08/09 12:51:39;;;;;;;;;;;;;;;29.93;36.96;100015.91;4790091;29;20284;-72
2022/08/09 12:54:29;;;;;;;;;;;;;;;30.00;36.20;100014.50;4805311;29;19962;-72
2022/08/09 12:56:58;;;;;;;;;;;;;;;29.96;36.38;100012.22;4807853;29;20368;-71
2022/08/09 12:59:32;;;;;;;;;;;;;;;29.90;37.37;100002.97;4806640;29;19939;-70
2022/08/09 13:02:20;;;;;;;;;;;;;;;29.78;36.72;100011.78;4805017;29;19956;-68
2022/08/09 13:04:59;;;;;;;;;;;;;;;29.93;36.35;100012.44;4820742;29;19972;-72
2022/08/09 13:07:29;;;;;;;;;;;;;;;30.03;35.86;100001.09;4823122;29;19936;-70
2022/08/09 13:10:19;;;;;;;;;;;;;;;30.29;36.76;100001.75;4822946;29;19929;-72
2022/08/09 13:12:53;;;;;;;;;;;;;;;30.18;35.54;100005.22;4826019;29;19979;-70
2022/08/09 13:15:50;;;;;;;;;;;;;;;30.14;35.41;100006.38;4821306;29;20001;-70
2022/08/09 13:18:20;;;;;;;;;;;;;;;30.05;35.30;99999.19;4824296;29;20404;-71
2022/08/09 13:20:54;;;;;;;;;;;;;;;29.80;35.02;99988.84;4827200;29;19951;-69
2022/08/09 13:23:43;;;;;;;;;;;;;;;29.93;35.20;99999.28;4824369;29;20264;-69
2022/08/09 13:26:37;;;;;;;;;;;;;;;30.01;35.23;100000.38;4824670;29;20388;-70
2022/08/09 13:29:06;;;;;;;;;;;;;;;30.10;35.00;99997.03;4826589;29;19929;-68
2022/08/09 13:31:54;;;;;;;;;;;;;;;30.31;36.05;99986.66;4806991;29;20023;-69
2022/08/09 13:34:42;;;;;;;;;;;;;;;30.49;35.52;99993.19;4815502;29;19935;-69
2022/08/09 13:37:24;;;;;;;;;;;;;;;30.45;34.93;99987.28;4818600;29;19937;-71
2022/08/09 13:40:28;;;;;;;;;;;;;;;30.33;34.82;99987.41;4812003;29;20402;-72
2022/08/09 13:46:21;;;;;;;;;;;;;;;30.29;34.96;99989.41;4823634;29;20083;-72
2022/08/09 13:49:37;;;;;;;;;;;;;;;30.19;34.32;99996.34;4824842;29;19936;-71
2022/08/09 13:52:41;;;;;;;;;;;;;;;30.16;34.39;99990.47;4825109;29;19957;-72
2022/08/09 13:55:31;;;;;;;;;;;;;;;30.10;34.27;99997.03;4815018;29;19933;-71
2022/08/09 13:58:00;;;;;;;;;;;;;;;30.01;34.22;99987.22;4823994;29;19929;-71
2022/08/09 14:00:35;;;;;;;;;;;;;;;30.00;34.42;99992.56;4825130;29;19986;-71
2022/08/09 14:03:18;;;;;;;;;;;;;;;29.73;34.39;99991.03;4822675;29;19932;-68
2022/08/09 14:06:09;;;;;;;;;;;;;;;29.58;34.74;99989.56;4818684;29;19933;-69
2022/08/09 14:08:46;;;;;;;;;;;;;;;29.55;34.92;99989.78;4826478;29;19929;-70
2022/08/09 14:11:15;;;;;;;;;;;;;;;29.54;34.94;99992.50;4826597;29;19977;-70
2022/08/09 14:13:43;;;;;;;;;;;;;;;29.54;34.73;99992.50;4826784;29;20448;-70
2022/08/09 14:16:33;;;;;;;;;;;;;;;29.71;35.32;99984.22;4826724;29;20020;-70
2022/08/09 14:19:04;;;;;;;;;;;;;;;29.69;34.91;99986.13;4827098;29;20300;-70
2022/08/09 14:21:32;;;;;;;;;;;;;;;29.57;34.51;99997.56;4826584;29;19945;-71
2022/08/09 14:24:01;;;;;;;;;;;;;;;29.50;34.57;99991.06;4826960;29;19978;-71
2022/08/09 14:26:47;;;;;;;;;;;;;;;29.50;34.87;100002.44;4827022;29;19928;-69
2022/08/09 14:29:20;;;;;;;;;;;;;;;29.45;34.54;99995.81;4826566;29;19939;-71
2022/08/09 14:32:10;;;;;;;;;;;;;;;29.43;34.84;100000.38;4826759;29;20350;-71
2022/08/09 14:34:43;;;;;;;;;;;;;;;29.40;34.69;100005.84;4826847;29;19993;-71
2022/08/09 14:37:12;;;;;;;;;;;;;;;29.33;34.58;100000.19;4826751;29;20375;-70
2022/08/09 14:39:41;;;;;;;;;;;;;;;29.22;34.72;100007.19;4826714;29;20387;-70
2022/08/09 14:42:16;;;;;;;;;;;;;;;29.20;34.74;100004.69;4826657;29;20036;-72
2022/08/09 14:45:01;;;;;;;;;;;;;;;29.17;34.77;100000.47;4826465;29;20296;-71
2022/08/09 14:47:51;;;;;;;;;;;;;;;29.22;34.86;100007.19;4826690;29;20139;-71
2022/08/09 14:50:28;;;;;;;;;;;;;;;29.23;35.32;100003.63;4826206;29;19933;-71
2022/08/09 14:52:58;;;;;;;;;;;;;;;29.25;35.41;100012.25;4826629;29;19929;-71
2022/08/09 14:55:27;;;;;;;;;;;;;;;29.19;35.12;100003.84;4826136;29;19956;-70
2022/08/09 14:58:00;;;;;;;;;;;;;;;29.11;35.27;100011.41;4826438;29;19928;-70
2022/08/09 15:00:31;;;;;;;;;;;;;;;29.04;35.27;100009.31;4826154;29;19945;-70
2022/08/09 15:03:02;;;;;;;;;;;;;;;29.06;35.66;100010.88;4810464;29;19933;-71
2022/08/09 15:05:31;;;;;;;;;;;;;;;29.05;35.53;100000.50;4826599;29;20324;-71
2022/08/09 15:08:00;;;;;;;;;;;;;;;29.09;35.81;100001.94;4826024;29;20015;-71
2022/08/09 15:10:29;;;;;;;;;;;;;;;29.11;36.06;100006.13;4825889;29;19937;-69
2022/08/09 15:12:59;;;;;;;;;;;;;;;29.06;36.00;99996.91;4825940;29;20003;-71
2022/08/09 15:15:30;;;;;;;;;;;;;;;28.99;35.70;100007.03;4826526;29;19929;-70
2022/08/09 15:18:08;;;;;;;;;;;;;;;28.94;35.95;100003.03;4824281;29;20440;-72
2022/08/09 15:20:42;;;;;;;;;;;;;;;28.87;35.90;99993.91;4826164;29;19933;-70
2022/08/09 15:23:31;;;;;;;;;;;;;;;28.77;35.79;99996.34;4825913;29;19932;-71
2022/08/09 15:26:20;;;;;;;;;;;;;;;28.73;36.05;100005.41;4826134;29;19940;-70
2022/08/09 15:29:00;;;;;;;;;;;;;;;28.63;35.75;100009.59;4839675;29;19929;-70
2022/08/09 15:31:32;;;;;;;;;;;;;;;28.61;36.32;100001.00;4825777;29;19980;-69